sensor_id;sensor_type;location;lat;lon;timestamp;pressure;altitude;pressure_sealevel;temperature;humidity
24762;BME280;12865;51.934;10.330;2023-01-31T00:00:31;99415.28;;;3.83;100.00
24762;BME280;12865;51.934;10.330;2023-01-31T00:03:17;99422.72;;;3.77;100.00
24762;BME280;12865;51.934;10.330;2023-01-31T00:06:29;99424.22;;;3.81;100.00
24762;BME280;12865;51.934;10.330;2023-01-31T00:09:16;99422.91;;;3.74;100.00
24762;BME280;12865;51.934;10.330;2023-01-31T00:12:02;99426.38;;;3.74;100.00
24762;BME280;12865;51.934;10.330;2023-01-31T00:14:47;99417.44;;;3.63;100.00
24762;BME280;12865;51.934;10.330;2023-01-31T00:17:33;99401.03;;;3.58;100.00
24762;BME280;12865;51.934;10.330;2023-01-31T00:20:19;99411.69;;;3.56;100.00
24762;BME280;12865;51.934;10.330;2023-01-31T00:23:04;99413.06;;;3.47;100.00
24762;BME280;12865;51.934;10.330;2023-01-31T00:25:50;99421.81;;;3.48;100.00
24762;BME280;12865;51.934;10.330;2023-01-31T00:28:36;99409.41;;;3.50;100.00
24762;BME280;12865;51.934;10.330;2023-01-31T00:31:24;99419.66;;;3.54;100.00
24762;BME280;12865;51.934;10.330;2023-01-31T00:34:10;99419.19;;;3.48;100.00
24762;BME280;12865;51.934;10.330;2023-01-31T00:36:55;99429.81;;;3.46;100.00
24762;BME280;12865;51.934;10.330;2023-01-31T00:39:41;99432.38;;;3.48;100.00
24762;BME280;12865;51.934;10.330;2023-01-31T00:42:27;99419.94;;;3.50;100.00
24762;BME280;12865;51.934;10.330;2023-01-31T00:45:12;99421.25;;;3.43;100.00
24762;BME280;12865;51.934;10.330;2023-01-31T00:47:58;99424.22;;;3.37;100.00
24762;BME280;12865;51.934;10.330;2023-01-31T00:50:44;99441.72;;;3.38;100.00
24762;BME280;12865;51.934;10.330;2023-01-31T00:53:30;99432.97;;;3.37;100.00
24762;BME280;12865;51.934;10.330;2023-01-31T00:56:21;99444.50;;;3.21;100.00
24762;BME280;12865;51.934;10.330;2023-01-31T00:59:07;99440.34;;;3.16;100.00
24762;BME280;12865;51.934;10.330;2023-01-31T01:01:53;99444.75;;;3.16;100.00
24762;BME280;12865;51.934;10.330;2023-01-31T01:04:39;99445.03;;;3.11;100.00
24762;BME280;12865;51.934;10.330;2023-01-31T01:07:25;99443.16;;;3.13;100.00
24762;BME280;12865;51.934;10.330;2023-01-31T01:10:11;99440.19;;;3.20;100.00
24762;BME280;12865;51.934;10.330;2023-01-31T01:12:57;99452.72;;;3.30;100.00
24762;BME280;12865;51.934;10.330;2023-01-31T01:15:42;99450.34;;;3.26;100.00
24762;BME280;12865;51.934;10.330;2023-01-31T01:18:28;99463.25;;;3.30;100.00
24762;BME280;12865;51.934;10.330;2023-01-31T01:21:18;99453.75;;;3.28;100.00
24762;BME280;12865;51.934;10.330;2023-01-31T01:24:11;99461.22;;;3.35;100.00
24762;BME280;12865;51.934;10.330;2023-01-31T01:26:56;99463.75;;;3.37;100.00
24762;BME280;12865;51.934;10.330;2023-01-31T01:29:42;99460.28;;;3.36;100.00
24762;BME280;12865;51.934;10.330;2023-01-31T01:32:28;99466.66;;;3.32;100.00
24762;BME280;12865;51.934;10.330;2023-01-31T01:35:14;99462.06;;;3.36;100.00
24762;BME280;12865;51.934;10.330;2023-01-31T01:37:59;99473.28;;;3.24;100.00
24762;BME280;12865;51.934;10.330;2023-01-31T01:40:45;99462.75;;;3.24;100.00
24762;BME280;12865;51.934;10.330;2023-01-31T01:43:57;99465.50;;;3.22;100.00
24762;BME280;12865;51.934;10.330;2023-01-31T01:46:43;99477.06;;;3.20;100.00
24762;BME280;12865;51.934;10.330;2023-01-31T01:49:35;99472.88;;;3.15;100.00
24762;BME280;12865;51.934;10.330;2023-01-31T01:52:22;99480.69;;;3.17;100.00
24762;BME280;12865;51.934;10.330;2023-01-31T01:55:32;99477.06;;;3.20;100.00
24762;BME280;12865;51.934;10.330;2023-01-31T02:01:07;99494.38;;;3.24;100.00
24762;BME280;12865;51.934;10.330;2023-01-31T02:03:53;99492.34;;;3.29;100.00
24762;BME280;12865;51.934;10.330;2023-01-31T02:06:39;99502.19;;;3.25;100.00
24762;BME280;12865;51.934;10.330;2023-01-31T02:09:41;99506.63;;;3.25;100.00
24762;BME280;12865;51.934;10.330;2023-01-31T02:12:31;99509.00;;;3.29;100.00
24762;BME280;12865;51.934;10.330;2023-01-31T02:15:17;99506.25;;;3.46;100.00
24762;BME280;12865;51.934;10.330;2023-01-31T02:18:03;99506.88;;;3.36;100.00
24762;BME280;12865;51.934;10.330;2023-01-31T02:46:30;99512.22;;;3.34;100.00
24762;BME280;12865;51.934;10.330;2023-01-31T02:49:20;99519.53;;;3.29;100.00
24762;BME280;12865;51.934;10.330;2023-01-31T02:55:31;99513.59;;;3.26;100.00
24762;BME280;12865;51.934;10.330;2023-01-31T02:58:39;99518.69;;;3.29;100.00
24762;BME280;12865;51.934;10.330;2023-01-31T03:01:35;99516.72;;;3.32;100.00
24762;BME280;12865;51.934;10.330;2023-01-31T03:04:22;99522.25;;;3.28;100.00
24762;BME280;12865;51.934;10.330;2023-01-31T03:07:25;99543.00;;;3.34;100.00
24762;BME280;12865;51.934;10.330;2023-01-31T03:16:35;99544.28;;;3.27;100.00
24762;BME280;12865;51.934;10.330;2023-01-31T03:19:57;99539.34;;;3.21;100.00
24762;BME280;12865;51.934;10.330;2023-01-31T03:22:51;99529.75;;;3.20;100.00
24762;BME280;12865;51.934;10.330;2023-01-31T03:25:39;99526.53;;;3.14;100.00
24762;BME280;12865;51.934;10.330;2023-01-31T03:28:33;99528.38;;;3.12;100.00
24762;BME280;12865;51.934;10.330;2023-01-31T03:32:01;99529.03;;;3.16;100.00
24762;BME280;12865;51.934;10.330;2023-01-31T03:34:48;99529.56;;;3.23;100.00
24762;BME280;12865;51.934;10.330;2023-01-31T03:40:26;99512.81;;;3.24;100.00
24762;BME280;12865;51.934;10.330;2023-01-31T03:43:30;99519.38;;;3.16;100.00
24762;BME280;12865;51.934;10.330;2023-01-31T03:46:27;99507.47;;;3.09;100.00
24762;BME280;12865;51.934;10.330;2023-01-31T03:49:16;99499.34;;;3.14;100.00
24762;BME280;12865;51.934;10.330;2023-01-31T03:52:06;99494.13;;;3.12;100.00
24762;BME280;12865;51.934;10.330;2023-01-31T03:54:57;99492.78;;;3.05;100.00
24762;BME280;12865;51.934;10.330;2023-01-31T03:57:48;99505.75;;;3.08;100.00
24762;BME280;12865;51.934;10.330;2023-01-31T04:00:38;99491.78;;;3.08;100.00
24762;BME280;12865;51.934;10.330;2023-01-31T04:04:02;99494.06;;;3.14;100.00
24762;BME280;12865;51.934;10.330;2023-01-31T04:06:46;99501.34;;;3.09;100.00
24762;BME280;12865;51.934;10.330;2023-01-31T04:09:32;99494.72;;;3.17;100.00
24762;BME280;12865;51.934;10.330;2023-01-31T04:12:18;99496.34;;;3.20;100.00
24762;BME280;12865;51.934;10.330;2023-01-31T04:15:04;99508.81;;;3.16;100.00
24762;BME280;12865;51.934;10.330;2023-01-31T04:17:50;99505.25;;;3.17;100.00
24762;BME280;12865;51.934;10.330;2023-01-31T04:20:36;99504.06;;;3.23;100.00
24762;BME280;12865;51.934;10.330;2023-01-31T04:23:21;99515.22;;;3.28;100.00
24762;BME280;12865;51.934;10.330;2023-01-31T04:26:09;99517.91;;;3.27;100.00
24762;BME280;12865;51.934;10.330;2023-01-31T04:28:54;99516.31;;;3.24;100.00
24762;BME280;12865;51.934;10.330;2023-01-31T04:31:40;99517.50;;;3.34;100.00
24762;BME280;12865;51.934;10.330;2023-01-31T04:34:26;99526.59;;;3.29;100.00
24762;BME280;12865;51.934;10.330;2023-01-31T04:37:11;99533.47;;;3.31;100.00
24762;BME280;12865;51.934;10.330;2023-01-31T04:39:57;99522.06;;;3.31;100.00
24762;BME280;12865;51.934;10.330;2023-01-31T04:42:43;99530.91;;;3.30;100.00
24762;BME280;12865;51.934;10.330;2023-01-31T04:45:29;99518.69;;;3.29;100.00
24762;BME280;12865;51.934;10.330;2023-01-31T04:48:14;99511.97;;;3.23;100.00
24762;BME280;12865;51.934;10.330;2023-01-31T04:51:00;99516.22;;;3.10;100.00
24762;BME280;12865;51.934;10.330;2023-01-31T04:53:46;99512.50;;;3.14;100.00
24762;BME280;12865;51.934;10.330;2023-01-31T04:56:32;99515.03;;;3.15;100.00
24762;BME280;12865;51.934;10.330;2023-01-31T04:59:18;99514.28;;;3.13;100.00
24762;BME280;12865;51.934;10.330;2023-01-31T05:02:04;99529.66;;;3.05;100.00
24762;BME280;12865;51.934;10.330;2023-01-31T05:04:49;99523.13;;;3.12;100.00
24762;BME280;12865;51.934;10.330;2023-01-31T05:07:35;99527.88;;;3.06;100.00
24762;BME280;12865;51.934;10.330;2023-01-31T05:10:21;99509.72;;;3.01;100.00
24762;BME280;12865;51.934;10.330;2023-01-31T05:13:06;99538.50;;;3.04;100.00
24762;BME280;12865;51.934;10.330;2023-01-31T05:15:52;99528.88;;;3.03;100.00
24762;BME280;12865;51.934;10.330;2023-01-31T05:18:38;99519.78;;;3.09;100.00
24762;BME280;12865;51.934;10.330;2023-01-31T05:21:24;99520.63;;;3.09;100.00
24762;BME280;12865;51.934;10.330;2023-01-31T05:24:10;99523.63;;;3.03;100.00
24762;BME280;12865;51.934;10.330;2023-01-31T05:26:57;99518.09;;;2.92;100.00
24762;BME280;12865;51.934;10.330;2023-01-31T05:29:43;99526.66;;;2.96;100.00
24762;BME280;12865;51.934;10.330;2023-01-31T05:32:29;99523.63;;;3.03;100.00
24762;BME280;12865;51.934;10.330;2023-01-31T05:35:15;99531.78;;;2.99;100.00
24762;BME280;12865;51.934;10.330;2023-01-31T05:38:01;99520.47;;;2.97;100.00
24762;BME280;12865;51.934;10.330;2023-01-31T05:40:49;99523.97;;;3.13;100.00
24762;BME280;12865;51.934;10.330;2023-01-31T05:43:34;99519.19;;;3.04;100.00
24762;BME280;12865;51.934;10.330;2023-01-31T05:46:20;99520.91;;;3.05;100.00
24762;BME280;12865;51.934;10.330;2023-01-31T05:49:08;99516.06;;;2.97;100.00
24762;BME280;12865;51.934;10.330;2023-01-31T05:51:54;99514.88;;;3.03;100.00
24762;BME280;12865;51.934;10.330;2023-01-31T05:54:39;99509.94;;;2.97;100.00
24762;BME280;12865;51.934;10.330;2023-01-31T05:57:25;99505.44;;;2.99;100.00
24762;BME280;12865;51.934;10.330;2023-01-31T06:00:12;99507.16;;;3.00;100.00
24762;BME280;12865;51.934;10.330;2023-01-31T06:02:58;99499.50;;;2.95;100.00
24762;BME280;12865;51.934;10.330;2023-01-31T06:05:44;99521.75;;;3.05;100.00
24762;BME280;12865;51.934;10.330;2023-01-31T06:08:30;99517.00;;;3.12;100.00
24762;BME280;12865;51.934;10.330;2023-01-31T06:11:16;99521.69;;;3.07;100.00
24762;BME280;12865;51.934;10.330;2023-01-31T06:14:02;99518.44;;;3.02;100.00
24762;BME280;12865;51.934;10.330;2023-01-31T06:16:48;99512.84;;;3.08;100.00
24762;BME280;12865;51.934;10.330;2023-01-31T06:19:34;99521.50;;;3.10;100.00
24762;BME280;12865;51.934;10.330;2023-01-31T06:22:20;99517.66;;;3.15;100.00
24762;BME280;12865;51.934;10.330;2023-01-31T06:25:05;99497.03;;;3.08;100.00
24762;BME280;12865;51.934;10.330;2023-01-31T06:27:52;99502.19;;;3.09;100.00
24762;BME280;12865;51.934;10.330;2023-01-31T06:30:37;99511.31;;;3.20;100.00
24762;BME280;12865;51.934;10.330;2023-01-31T06:33:23;99489.97;;;3.08;100.00
24762;BME280;12865;51.934;10.330;2023-01-31T06:36:09;99503.56;;;3.16;100.00
24762;BME280;12865;51.934;10.330;2023-01-31T06:38:54;99496.69;;;3.14;100.00
24762;BME280;12865;51.934;10.330;2023-01-31T06:41:40;99491.84;;;3.06;100.00
24762;BME280;12865;51.934;10.330;2023-01-31T06:44:26;99500.06;;;3.16;100.00
24762;BME280;12865;51.934;10.330;2023-01-31T06:47:11;99491.31;;;3.15;100.00
24762;BME280;12865;51.934;10.330;2023-01-31T06:50:00;99507.47;;;3.09;100.00
24762;BME280;12865;51.934;10.330;2023-01-31T06:52:45;99485.38;;;3.12;100.00
24762;BME280;12865;51.934;10.330;2023-01-31T06:55:32;99492.16;;;3.16;100.00
24762;BME280;12865;51.934;10.330;2023-01-31T06:58:18;99481.56;;;3.17;100.00
24762;BME280;12865;51.934;10.330;2023-01-31T07:01:09;99477.22;;;3.16;100.00
24762;BME280;12865;51.934;10.330;2023-01-31T07:03:55;99487.41;;;3.23;100.00
24762;BME280;12865;51.934;10.330;2023-01-31T07:06:41;99486.38;;;3.25;100.00
24762;BME280;12865;51.934;10.330;2023-01-31T07:09:26;99484.69;;;3.24;100.00
24762;BME280;12865;51.934;10.330;2023-01-31T07:12:12;99471.28;;;3.29;100.00
24762;BME280;12865;51.934;10.330;2023-01-31T07:14:58;99479.47;;;3.38;100.00
24762;BME280;12865;51.934;10.330;2023-01-31T07:17:43;99469.13;;;3.35;100.00
24762;BME280;12865;51.934;10.330;2023-01-31T07:20:29;99463.75;;;3.37;100.00
24762;BME280;12865;51.934;10.330;2023-01-31T07:23:15;99466.38;;;3.37;100.00
24762;BME280;12865;51.934;10.330;2023-01-31T07:26:04;99455.09;;;3.35;100.00
24762;BME280;12865;51.934;10.330;2023-01-31T07:28:51;99449.38;;;3.42;100.00
24762;BME280;12865;51.934;10.330;2023-01-31T07:31:38;99445.13;;;3.40;100.00
24762;BME280;12865;51.934;10.330;2023-01-31T07:34:24;99444.84;;;3.44;100.00
24762;BME280;12865;51.934;10.330;2023-01-31T07:37:09;99441.28;;;3.45;100.00
24762;BME280;12865;51.934;10.330;2023-01-31T07:39:55;99437.56;;;3.49;100.00
24762;BME280;12865;51.934;10.330;2023-01-31T07:42:41;99438.22;;;3.53;100.00
24762;BME280;12865;51.934;10.330;2023-01-31T07:45:26;99433.94;;;3.50;100.00
24762;BME280;12865;51.934;10.330;2023-01-31T07:48:12;99418.13;;;3.50;100.00
24762;BME280;12865;51.934;10.330;2023-01-31T07:50:59;99411.94;;;3.51;100.00
24762;BME280;12865;51.934;10.330;2023-01-31T07:53:45;99408.75;;;3.61;100.00
24762;BME280;12865;51.934;10.330;2023-01-31T07:56:31;99402.72;;;3.59;100.00
24762;BME280;12865;51.934;10.330;2023-01-31T07:59:17;99395.41;;;3.64;100.00
24762;BME280;12865;51.934;10.330;2023-01-31T08:02:03;99395.28;;;3.65;100.00
24762;BME280;12865;51.934;10.330;2023-01-31T08:05:07;99401.41;;;3.66;100.00
24762;BME280;12865;51.934;10.330;2023-01-31T08:07:54;99395.31;;;3.79;100.00
24762;BME280;12865;51.934;10.330;2023-01-31T08:13:22;99389.47;;;3.74;100.00
24762;BME280;12865;51.934;10.330;2023-01-31T08:16:08;99387.06;;;3.85;100.00
24762;BME280;12865;51.934;10.330;2023-01-31T08:18:54;99375.91;;;3.80;100.00
24762;BME280;12865;51.934;10.330;2023-01-31T08:21:40;99376.84;;;3.93;100.00
24762;BME280;12865;51.934;10.330;2023-01-31T08:24:25;99381.09;;;3.96;100.00
24762;BME280;12865;51.934;10.330;2023-01-31T08:27:11;99369.31;;;3.87;100.00
24762;BME280;12865;51.934;10.330;2023-01-31T08:29:57;99383.66;;;3.98;100.00
24762;BME280;12865;51.934;10.330;2023-01-31T08:32:42;99380.06;;;3.99;100.00
24762;BME280;12865;51.934;10.330;2023-01-31T08:35:28;99384.13;;;3.90;100.00
24762;BME280;12865;51.934;10.330;2023-01-31T08:38:14;99373.28;;;3.94;100.00
24762;BME280;12865;51.934;10.330;2023-01-31T08:40:59;99378.16;;;4.01;100.00
24762;BME280;12865;51.934;10.330;2023-01-31T08:43:45;99373.28;;;3.94;100.00
24762;BME280;12865;51.934;10.330;2023-01-31T08:46:35;99369.41;;;4.00;100.00
24762;BME280;12865;51.934;10.330;2023-01-31T08:49:21;99360.66;;;4.00;100.00
24762;BME280;12865;51.934;10.330;2023-01-31T08:52:07;99346.44;;;4.02;100.00
24762;BME280;12865;51.934;10.330;2023-01-31T08:54:52;99341.81;;;4.06;100.00
24762;BME280;12865;51.934;10.330;2023-01-31T08:57:39;99335.78;;;4.04;100.00
24762;BME280;12865;51.934;10.330;2023-01-31T09:00:25;99328.34;;;4.10;100.00
24762;BME280;12865;51.934;10.330;2023-01-31T09:03:15;99329.38;;;4.08;100.00
24762;BME280;12865;51.934;10.330;2023-01-31T09:06:05;99331.25;;;4.20;100.00
24762;BME280;12865;51.934;10.330;2023-01-31T09:08:52;99325.13;;;4.19;100.00
24762;BME280;12865;51.934;10.330;2023-01-31T09:11:37;99317.22;;;4.19;100.00
24762;BME280;12865;51.934;10.330;2023-01-31T09:14:24;99319.09;;;4.17;100.00
24762;BME280;12865;51.934;10.330;2023-01-31T09:17:09;99300.38;;;4.34;100.00
24762;BME280;12865;51.934;10.330;2023-01-31T09:19:56;99304.72;;;4.35;100.00
24762;BME280;12865;51.934;10.330;2023-01-31T09:22:42;99311.31;;;4.28;100.00
24762;BME280;12865;51.934;10.330;2023-01-31T09:25:27;99322.06;;;4.40;100.00
24762;BME280;12865;51.934;10.330;2023-01-31T09:28:13;99314.72;;;4.30;100.00
24762;BME280;12865;51.934;10.330;2023-01-31T09:31:07;99310.28;;;4.31;100.00
24762;BME280;12865;51.934;10.330;2023-01-31T09:33:53;99297.47;;;4.39;100.00
24762;BME280;12865;51.934;10.330;2023-01-31T09:36:39;99289.13;;;4.45;100.00
24762;BME280;12865;51.934;10.330;2023-01-31T09:39:25;99293.06;;;4.52;100.00
24762;BME280;12865;51.934;10.330;2023-01-31T09:42:23;99284.00;;;4.56;100.00
24762;BME280;12865;51.934;10.330;2023-01-31T09:45:14;99293.50;;;4.59;100.00
24762;BME280;12865;51.934;10.330;2023-01-31T09:48:01;99291.53;;;4.62;100.00
24762;BME280;12865;51.934;10.330;2023-01-31T09:50:51;99283.31;;;4.67;100.00
24762;BME280;12865;51.934;10.330;2023-01-31T09:53:41;99291.44;;;4.77;100.00
24762;BME280;12865;51.934;10.330;2023-01-31T09:56:50;99266.09;;;4.74;100.00
24762;BME280;12865;51.934;10.330;2023-01-31T09:59:50;99255.75;;;4.84;100.00
24762;BME280;12865;51.934;10.330;2023-01-31T10:05:44;99264.00;;;4.92;100.00
24762;BME280;12865;51.934;10.330;2023-01-31T10:08:44;99265.28;;;4.86;100.00
24762;BME280;12865;51.934;10.330;2023-01-31T10:11:48;99249.25;;;5.02;100.00
24762;BME280;12865;51.934;10.330;2023-01-31T10:14:47;99251.22;;;4.98;100.00
24762;BME280;12865;51.934;10.330;2023-01-31T10:17:45;99234.88;;;5.06;100.00
24762;BME280;12865;51.934;10.330;2023-01-31T10:23:47;99216.13;;;4.84;100.00
24762;BME280;12865;51.934;10.330;2023-01-31T10:26:35;99235.03;;;4.78;100.00
24762;BME280;12865;51.934;10.330;2023-01-31T10:29:27;99224.88;;;4.71;100.00
24762;BME280;12865;51.934;10.330;2023-01-31T10:32:27;99236.19;;;4.61;100.00
24762;BME280;12865;51.934;10.330;2023-01-31T10:35:27;99232.59;;;4.62;100.00
24762;BME280;12865;51.934;10.330;2023-01-31T10:38:26;99227.66;;;4.43;100.00
24762;BME280;12865;51.934;10.330;2023-01-31T10:41:17;99227.13;;;4.38;100.00
24762;BME280;12865;51.934;10.330;2023-01-31T10:44:09;99228.75;;;4.41;100.00
24762;BME280;12865;51.934;10.330;2023-01-31T10:46:58;99218.47;;;4.36;100.00
24762;BME280;12865;51.934;10.330;2023-01-31T10:49:47;99196.38;;;4.24;100.00
24762;BME280;12865;51.934;10.330;2023-01-31T10:58:28;99188.22;;;4.15;100.00
24762;BME280;12865;51.934;10.330;2023-01-31T11:01:13;99195.19;;;4.16;100.00
24762;BME280;12865;51.934;10.330;2023-01-31T11:04:00;99191.41;;;4.20;100.00
24762;BME280;12865;51.934;10.330;2023-01-31T11:06:46;99175.19;;;4.26;100.00
24762;BME280;12865;51.934;10.330;2023-01-31T11:09:36;99176.81;;;4.14;100.00
24762;BME280;12865;51.934;10.330;2023-01-31T11:12:41;99180.91;;;4.06;100.00
24762;BME280;12865;51.934;10.330;2023-01-31T11:15:35;99188.16;;;4.02;100.00
24762;BME280;12865;51.934;10.330;2023-01-31T11:18:34;99184.69;;;4.02;100.00
24762;BME280;12865;51.934;10.330;2023-01-31T11:21:28;99170.91;;;4.11;100.00
24762;BME280;12865;51.934;10.330;2023-01-31T11:24:18;99169.66;;;4.16;100.00
24762;BME280;12865;51.934;10.330;2023-01-31T11:27:09;99152.03;;;4.17;100.00
24762;BME280;12865;51.934;10.330;2023-01-31T11:29:55;99128.09;;;4.20;100.00
24762;BME280;12865;51.934;10.330;2023-01-31T11:32:43;99129.66;;;4.22;100.00
24762;BME280;12865;51.934;10.330;2023-01-31T11:35:33;99128.81;;;4.22;100.00
24762;BME280;12865;51.934;10.330;2023-01-31T11:38:22;99104.66;;;4.28;100.00
24762;BME280;12865;51.934;10.330;2023-01-31T11:44:20;99093.91;;;4.31;100.00
24762;BME280;12865;51.934;10.330;2023-01-31T11:47:10;99069.22;;;4.32;100.00
24762;BME280;12865;51.934;10.330;2023-01-31T11:49:59;99075.44;;;4.31;100.00
24762;BME280;12865;51.934;10.330;2023-01-31T11:52:45;99073.00;;;4.28;100.00
24762;BME280;12865;51.934;10.330;2023-01-31T11:55:38;99065.41;;;4.36;100.00
24762;BME280;12865;51.934;10.330;2023-01-31T11:58:33;99074.41;;;4.33;100.00
24762;BME280;12865;51.934;10.330;2023-01-31T12:01:23;99050.31;;;4.38;100.00
24762;BME280;12865;51.934;10.330;2023-01-31T12:04:16;99049.66;;;4.34;100.00
24762;BME280;12865;51.934;10.330;2023-01-31T12:07:07;99053.28;;;4.46;100.00
24762;BME280;12865;51.934;10.330;2023-01-31T12:13:24;99047.47;;;4.41;100.00
24762;BME280;12865;51.934;10.330;2023-01-31T12:16:10;99058.66;;;4.32;100.00
24762;BME280;12865;51.934;10.330;2023-01-31T12:25:19;99039.88;;;4.37;100.00
24762;BME280;12865;51.934;10.330;2023-01-31T12:28:31;99039.97;;;4.35;100.00
24762;BME280;12865;51.934;10.330;2023-01-31T12:31:41;99029.81;;;4.29;100.00
24762;BME280;12865;51.934;10.330;2023-01-31T12:44:43;99007.56;;;4.33;100.00
24762;BME280;12865;51.934;10.330;2023-01-31T12:53:46;99004.09;;;4.32;100.00
24762;BME280;12865;51.934;10.330;2023-01-31T12:56:41;99019.06;;;4.32;100.00
24762;BME280;12865;51.934;10.330;2023-01-31T12:59:50;98996.19;;;4.32;100.00
24762;BME280;12865;51.934;10.330;2023-01-31T13:05:52;98994.16;;;4.36;100.00
24762;BME280;12865;51.934;10.330;2023-01-31T13:08:39;98993.53;;;4.32;100.00
24762;BME280;12865;51.934;10.330;2023-01-31T13:11:34;98988.88;;;4.36;100.00
24762;BME280;12865;51.934;10.330;2023-01-31T13:14:25;98985.09;;;4.40;100.00
24762;BME280;12865;51.934;10.330;2023-01-31T13:17:16;98987.59;;;4.29;100.00
24762;BME280;12865;51.934;10.330;2023-01-31T13:20:25;98983.41;;;4.39;100.00
24762;BME280;12865;51.934;10.330;2023-01-31T13:23:22;98995.50;;;4.42;100.00
24762;BME280;12865;51.934;10.330;2023-01-31T13:26:21;99004.72;;;4.36;100.00
24762;BME280;12865;51.934;10.330;2023-01-31T13:29:17;99001.13;;;4.37;100.00
24762;BME280;12865;51.934;10.330;2023-01-31T13:32:28;98992.69;;;4.45;100.00
24762;BME280;12865;51.934;10.330;2023-01-31T13:35:29;99004.69;;;4.49;100.00
24762;BME280;12865;51.934;10.330;2023-01-31T13:38:18;99005.97;;;4.43;100.00
24762;BME280;12865;51.934;10.330;2023-01-31T13:41:08;99005.94;;;4.56;100.00
24762;BME280;12865;51.934;10.330;2023-01-31T13:43:54;99004.28;;;4.42;100.00
24762;BME280;12865;51.934;10.330;2023-01-31T13:46:58;99018.97;;;4.46;100.00
24762;BME280;12865;51.934;10.330;2023-01-31T13:49:52;99019.16;;;4.43;100.00
24762;BME280;12865;51.934;10.330;2023-01-31T13:52:46;99018.53;;;4.52;100.00
24762;BME280;12865;51.934;10.330;2023-01-31T13:55:38;99020.75;;;4.46;100.00
24762;BME280;12865;51.934;10.330;2023-01-31T13:58:29;99025.19;;;4.45;100.00
24762;BME280;12865;51.934;10.330;2023-01-31T14:01:19;99039.13;;;4.47;100.00
24762;BME280;12865;51.934;10.330;2023-01-31T14:12:35;99025.00;;;4.48;100.00
24762;BME280;12865;51.934;10.330;2023-01-31T14:15:47;99017.38;;;4.44;100.00
24762;BME280;12865;51.934;10.330;2023-01-31T14:18:44;99017.06;;;4.48;100.00
24762;BME280;12865;51.934;10.330;2023-01-31T14:27:42;99000.56;;;4.57;100.00
24762;BME280;12865;51.934;10.330;2023-01-31T14:30:41;99000.56;;;4.57;100.00
24762;BME280;12865;51.934;10.330;2023-01-31T14:33:28;98990.34;;;4.53;100.00
24762;BME280;12865;51.934;10.330;2023-01-31T14:36:25;99007.13;;;4.64;100.00
24762;BME280;12865;51.934;10.330;2023-01-31T14:39:26;99005.66;;;4.60;100.00
24762;BME280;12865;51.934;10.330;2023-01-31T14:42:29;99009.13;;;4.61;100.00
24762;BME280;12865;51.934;10.330;2023-01-31T14:45:49;99016.53;;;4.68;100.00
24762;BME280;12865;51.934;10.330;2023-01-31T14:54:58;99027.81;;;4.70;100.00
24762;BME280;12865;51.934;10.330;2023-01-31T14:57:50;99013.56;;;4.73;100.00
24762;BME280;12865;51.934;10.330;2023-01-31T15:00:38;99009.31;;;4.70;100.00
24762;BME280;12865;51.934;10.330;2023-01-31T15:03:47;99010.41;;;4.68;100.00
24762;BME280;12865;51.934;10.330;2023-01-31T15:06:36;99012.38;;;4.77;100.00
24762;BME280;12865;51.934;10.330;2023-01-31T15:09:34;99030.97;;;4.76;100.00
24762;BME280;12865;51.934;10.330;2023-01-31T15:12:55;99018.84;;;4.73;100.00
24762;BME280;12865;51.934;10.330;2023-01-31T15:15:47;99019.25;;;4.80;100.00
24762;BME280;12865;51.934;10.330;2023-01-31T15:18:33;99027.81;;;4.83;100.00
24762;BME280;12865;51.934;10.330;2023-01-31T15:21:53;99010.44;;;4.92;100.00
24762;BME280;12865;51.934;10.330;2023-01-31T15:24:43;98999.91;;;4.79;100.00
24762;BME280;12865;51.934;10.330;2023-01-31T15:27:31;99001.91;;;4.88;100.00
24762;BME280;12865;51.934;10.330;2023-01-31T15:30:21;99017.75;;;4.88;100.00
24762;BME280;12865;51.934;10.330;2023-01-31T15:33:21;99013.06;;;4.92;100.00
24762;BME280;12865;51.934;10.330;2023-01-31T15:36:32;99007.34;;;4.98;100.00
24762;BME280;12865;51.934;10.330;2023-01-31T15:39:27;99011.81;;;4.97;100.00
24762;BME280;12865;51.934;10.330;2023-01-31T15:42:27;99021.66;;;4.95;100.00
24762;BME280;12865;51.934;10.330;2023-01-31T15:48:14;99027.78;;;4.96;100.00
24762;BME280;12865;51.934;10.330;2023-01-31T15:51:00;99025.97;;;4.96;100.00
24762;BME280;12865;51.934;10.330;2023-01-31T15:53:47;99018.66;;;5.00;100.00
24762;BME280;12865;51.934;10.330;2023-01-31T15:56:36;99023.75;;;5.03;100.00
24762;BME280;12865;51.934;10.330;2023-01-31T15:59:25;99033.06;;;4.96;100.00
24762;BME280;12865;51.934;10.330;2023-01-31T16:02:20;99028.06;;;4.91;100.00
24762;BME280;12865;51.934;10.330;2023-01-31T16:05:07;99024.34;;;5.06;100.00
24762;BME280;12865;51.934;10.330;2023-01-31T16:07:52;99022.78;;;4.91;100.00
24762;BME280;12865;51.934;10.330;2023-01-31T16:10:38;99034.00;;;4.95;100.00
24762;BME280;12865;51.934;10.330;2023-01-31T16:13:25;99015.72;;;4.92;100.00
24762;BME280;12865;51.934;10.330;2023-01-31T16:16:11;99007.59;;;4.95;100.00
24762;BME280;12865;51.934;10.330;2023-01-31T16:18:58;99019.75;;;4.97;100.00
24762;BME280;12865;51.934;10.330;2023-01-31T16:21:45;99030.91;;;5.01;100.00
24762;BME280;12865;51.934;10.330;2023-01-31T16:24:30;99027.78;;;4.96;100.00
24762;BME280;12865;51.934;10.330;2023-01-31T16:27:17;99031.97;;;4.98;100.00
24762;BME280;12865;51.934;10.330;2023-01-31T16:30:03;99028.47;;;4.98;100.00
24762;BME280;12865;51.934;10.330;2023-01-31T16:32:49;99007.50;;;4.96;100.00
24762;BME280;12865;51.934;10.330;2023-01-31T16:35:36;99032.91;;;5.10;100.00
24762;BME280;12865;51.934;10.330;2023-01-31T16:38:25;99014.59;;;5.20;100.00
24762;BME280;12865;51.934;10.330;2023-01-31T16:41:11;99019.56;;;5.24;100.00